KPNT

Pontiac Municipal Airport

Pontiac, Illinois, USA
METAR KPNT 190655Z AUTO 21013KT 10SM CLR M02/M05 A3002 RMK AO2 T10171055
Observed Flight Rules
Jan-19 @ 06:55 UTC (31 minutes ago) Visual Flight Rules
Wind Visibility Clouds
210° at 13 knots 10 miles
  • Clear skies
Temperatures Readings
Current -2°C / 28°F
Dewpoint -6°C / 21°F
Humidity 74%
Altimeter 30.02" Hg
Pressure 1017 hPa
Elevation 201
METAR KPNT 190655Z AUTO 21013KT 10SM CLR M02/M05 A3002 RMK AO2 T10171055
Observed Flight Rules
Jan-19 @ 06:55 UTC
(31 minutes ago)
VFR
Wind Visibility
210° at 13 knots 10 miles
Clouds
  • Clear skies
Temperature Dewpoint
-2°C / 28°F -6°C / 21°F
Humidity Altimeter Pressure
74% 30.02" Hg 1017 hPa